Pagina principale
METAR-TAF:

METAR-TAF

Aeroporti :

Aeroporto di Győr-Pér

Győr, Ungheria

latitudine: 47-37-28N, longitudine: 017-48-49E, altezza: 129 m

Osservazione

Il bollettino è stato emesso 38 minuti fa, alle 04:45 UTC
Vento 22 kt da nord-ovest
Temperature 2°C
Umidità 69%
Pressione 1019 hPa
Visibilità 10 km o più
nessuna nube inferiore a 1500 m e nessun cumulonembo

METAR: LHPR 300445Z AUTO 32022KT CAVOK 02/M03 Q1019

Ora: 07:23 (05:23 UTC)

Previsione

Il bollettino è stato emesso 12 ore e 8 minuti fa, alle 17:15 UTC
Previsione valida dal 29 alle 18 UTC al 30 alle 03 UTC
Vento 18 kt da nord-ovest
Visibilità 10 km o più
nessuna nube inferiore a 1500 m e nessun cumulonembo
Evoluzione graduale
dal 29 alle 22 UTC al 29 alle 24 UTC
Vento 24 kt da nord/nord-ovest

TAF: LHPR 291715Z 2918/3003 31018KT CAVOK BECMG 2922/2924 34024KT

Osservazioni e previsioni meteorologiche di più di 4000 aeroporti (messaggi METAR e TAF).

Le stazioni disponibili sono rappresentate dai dischi gialli e rossi sulla carta.

Puntare il mouse per vedere il nome della stazione.

Clicca sopra per visualizzare le osservazioni e previsioni meteorologiche.

Per cambiare la mappa : fare clic sui pulsanti verdi con una croce nera per ingrandire, il pulsante verde con un trattino per diminuire, o sulla freccia verde per le mappe adiacenti.


METAR-TAF: